Onhaye, Belgium
Current Conditions -  °F | °C
As of 11:25 PM on Monday 20 Oct 2014 (Local Time) from EBFS Reporting Station
Few Clouds Few Clouds  
Wind Chill: 50°   Ceiling: Unl
Heat Index: 50°   Visibility: 6mi
Dew Point: 50°   Wind: 7mph
Humidity: 100%   Direction: 230°SW
Pressure: 30"   Gusts: NA
Location:  50.24°N, 4.84°E
Report Text: EBFS 202125Z 23006KT 9999 FEW035 10/10 Q1016 BLU
Loading
Personal Weather Stations






























Interactive Weather Map
Tropical Storm Tracking
New forecast layout! Learn more

10-Day Weather Forecast

Advertisements
Track Severe Weather on mobile